Time;durP1;ratioP1;P1;durP2;ratioP2;P2;SDS_P1;SDS_P2;PMS_P1;PMS_P2;Temp;Humidity;BMP_temperature;BMP_pressure;BME280_temperature;BME280_humidity;BME280_pressure;Samples;Min_cycle;Max_cycle;Signal;HPM_P1;HPM_P2
2021/12/08 00:00:09;;;;;;;43.33;20.27;;;;;;;;;;4933315;29;20036;-73
2021/12/08 00:02:35;;;;;;;45.67;19.60;;;;;;;;;;4934421;29;20031;-74
2021/12/08 00:05:00;;;;;;;49.07;20.93;;;;;;;;;;4934834;29;20366;-74
2021/12/08 00:07:26;;;;;;;44.47;20.37;;;;;;;;;;4933332;29;20416;-73
2021/12/08 00:13:03;;;;;;;42.07;19.23;;;;;;;;;;4964627;28;20473;-73
2021/12/08 00:15:33;;;;;;;46.90;20.70;;;;;;;;;;4932919;29;20448;-74
2021/12/08 00:18:00;;;;;;;49.33;22.80;;;;;;;;;;4934618;29;20539;-73
2021/12/08 00:20:29;;;;;;;39.20;20.77;;;;;;;;;;4932960;29;20039;-72
2021/12/08 00:22:55;;;;;;;45.20;20.63;;;;;;;;;;4934239;29;20031;-73
2021/12/08 00:25:21;;;;;;;50.17;21.33;;;;;;;;;;4933163;29;20032;-73
2021/12/08 00:27:47;;;;;;;43.00;20.00;;;;;;;;;;4934186;29;20157;-74
2021/12/08 00:30:12;;;;;;;46.23;22.67;;;;;;;;;;4932839;29;20055;-73
2021/12/08 00:32:38;;;;;;;55.33;21.80;;;;;;;;;;4932817;29;20036;-73
2021/12/08 00:35:05;;;;;;;46.77;21.90;;;;;;;;;;4932740;29;20078;-74
2021/12/08 00:37:31;;;;;;;42.87;19.40;;;;;;;;;;4932704;29;20388;-74
2021/12/08 00:39:58;;;;;;;45.97;20.50;;;;;;;;;;4933816;29;20155;-77
2021/12/08 00:42:24;;;;;;;49.10;21.23;;;;;;;;;;4934045;29;20038;-77
2021/12/08 00:44:49;;;;;;;46.73;19.87;;;;;;;;;;4933308;29;20040;-77
2021/12/08 00:47:16;;;;;;;48.97;21.70;;;;;;;;;;4932319;29;20031;-77
2021/12/08 00:49:41;;;;;;;53.20;22.57;;;;;;;;;;4933378;29;20032;-77
2021/12/08 00:52:07;;;;;;;51.33;22.93;;;;;;;;;;4933615;29;20034;-78
2021/12/08 00:54:34;;;;;;;50.10;20.30;;;;;;;;;;4933514;29;20043;-77
2021/12/08 00:57:00;;;;;;;49.53;21.47;;;;;;;;;;4932987;29;20484;-78
2021/12/08 00:59:25;;;;;;;50.37;22.63;;;;;;;;;;4932133;29;20035;-76
2021/12/08 01:01:51;;;;;;;52.30;23.37;;;;;;;;;;4933683;29;20507;-77
2021/12/08 01:04:16;;;;;;;51.90;22.70;;;;;;;;;;4933509;29;20031;-77
2021/12/08 01:06:43;;;;;;;59.70;23.57;;;;;;;;;;4933859;29;20063;-79
2021/12/08 01:09:10;;;;;;;55.33;24.27;;;;;;;;;;4933672;29;20039;-78
2021/12/08 01:11:36;;;;;;;50.57;22.53;;;;;;;;;;4932065;29;20059;-78
2021/12/08 01:14:01;;;;;;;56.43;24.33;;;;;;;;;;4933270;29;20070;-78
2021/12/08 01:16:27;;;;;;;66.23;25.23;;;;;;;;;;4931970;29;20035;-78
2021/12/08 01:18:53;;;;;;;54.77;22.03;;;;;;;;;;4931729;29;20035;-77
2021/12/08 01:21:20;;;;;;;56.60;23.17;;;;;;;;;;4932004;29;20035;-77
2021/12/08 01:23:46;;;;;;;52.70;22.10;;;;;;;;;;4933452;29;20023;-78
2021/12/08 01:26:12;;;;;;;51.70;22.23;;;;;;;;;;4935082;29;20028;-77
2021/12/08 01:28:38;;;;;;;53.67;23.50;;;;;;;;;;4934739;29;20082;-76
2021/12/08 01:31:04;;;;;;;53.97;22.70;;;;;;;;;;4935163;29;20085;-77
2021/12/08 01:33:33;;;;;;;56.07;22.80;;;;;;;;;;4935775;29;20027;-77
2021/12/08 01:36:02;;;;;;;58.73;24.43;;;;;;;;;;4933799;29;20071;-75
2021/12/08 01:38:27;;;;;;;50.93;22.00;;;;;;;;;;4933496;29;20036;-76
2021/12/08 01:40:53;;;;;;;50.07;21.40;;;;;;;;;;4933054;29;20609;-77
2021/12/08 01:43:28;;;;;;;49.80;21.90;;;;;;;;;;4933310;29;20039;-76
2021/12/08 01:46:05;;;;;;;54.30;22.90;;;;;;;;;;4931611;29;20372;-78
2021/12/08 01:48:34;;;;;;;56.47;22.83;;;;;;;;;;4932908;29;20028;-75
2021/12/08 01:51:03;;;;;;;60.13;21.73;;;;;;;;;;4931485;29;20035;-76
2021/12/08 01:53:30;;;;;;;49.07;21.07;;;;;;;;;;4932550;29;20534;-77
2021/12/08 01:55:56;;;;;;;48.33;22.10;;;;;;;;;;4932645;29;20035;-79
2021/12/08 01:58:22;;;;;;;46.53;21.43;;;;;;;;;;4933052;29;20107;-76
2021/12/08 02:00:55;;;;;;;49.30;21.27;;;;;;;;;;4931097;29;20031;-77
2021/12/08 02:03:22;;;;;;;48.97;20.87;;;;;;;;;;4931164;29;20034;-77
2021/12/08 02:05:48;;;;;;;53.57;21.97;;;;;;;;;;4931247;29;20063;-78
2021/12/08 02:08:14;;;;;;;47.90;22.13;;;;;;;;;;4931381;29;20396;-77
2021/12/08 02:10:41;;;;;;;52.83;22.40;;;;;;;;;;4931054;29;20114;-77
2021/12/08 02:13:08;;;;;;;53.37;22.37;;;;;;;;;;4932911;29;20051;-77
2021/12/08 02:15:36;;;;;;;56.27;23.73;;;;;;;;;;4932930;29;20059;-76
2021/12/08 02:18:02;;;;;;;55.23;24.23;;;;;;;;;;4932460;29;20024;-77
2021/12/08 02:20:29;;;;;;;53.33;24.20;;;;;;;;;;4932656;29;20452;-77
2021/12/08 02:22:55;;;;;;;50.47;23.40;;;;;;;;;;4930698;29;20460;-76
2021/12/08 02:25:24;;;;;;;53.90;22.77;;;;;;;;;;4932754;29;20349;-78
2021/12/08 02:27:53;;;;;;;51.10;22.60;;;;;;;;;;4930640;29;20057;-77
2021/12/08 02:49:06;;;;;;;46.10;21.00;;;;;;;;;;4932608;29;20072;-75
2021/12/08 02:51:33;;;;;;;50.80;21.77;;;;;;;;;;4931952;29;20032;-73
2021/12/08 02:53:59;;;;;;;50.17;21.90;;;;;;;;;;4930835;29;20506;-73
2021/12/08 02:56:26;;;;;;;56.37;22.07;;;;;;;;;;4931109;29;20027;-73
2021/12/08 02:58:52;;;;;;;47.60;21.37;;;;;;;;;;4915111;29;20036;-74
2021/12/08 03:01:17;;;;;;;47.73;21.20;;;;;;;;;;4932347;29;20453;-72
2021/12/08 03:03:43;;;;;;;43.17;19.53;;;;;;;;;;4932444;29;20488;-74
2021/12/08 03:06:10;;;;;;;49.53;21.40;;;;;;;;;;4932399;29;20111;-72
2021/12/08 03:08:35;;;;;;;54.60;21.23;;;;;;;;;;4930983;29;20034;-74
2021/12/08 03:11:01;;;;;;;51.47;21.77;;;;;;;;;;4932290;29;20027;-73
2021/12/08 03:13:38;;;;;;;45.27;19.40;;;;;;;;;;4932347;29;20099;-74
2021/12/08 03:16:04;;;;;;;49.17;19.87;;;;;;;;;;4932137;29;20032;-73
2021/12/08 03:18:35;;;;;;;43.60;19.90;;;;;;;;;;4932207;29;20107;-73
2021/12/08 03:21:07;;;;;;;48.63;17.80;;;;;;;;;;4934394;29;20434;-73
2021/12/08 03:23:46;;;;;;;44.78;18.55;;;;;;;;;;4934439;29;20051;-74
2021/12/08 03:26:12;;;;;;;41.53;17.50;;;;;;;;;;4936011;29;20055;-74
2021/12/08 03:28:44;;;;;;;36.23;15.93;;;;;;;;;;4934260;29;20063;-74
2021/12/08 03:31:19;;;;;;;34.10;16.27;;;;;;;;;;4935824;29;20028;-72
2021/12/08 03:33:45;;;;;;;35.63;15.80;;;;;;;;;;4934056;29;20042;-73
2021/12/08 03:36:11;;;;;;;35.60;15.47;;;;;;;;;;4935675;29;20048;-73
2021/12/08 03:38:38;;;;;;;39.07;15.33;;;;;;;;;;4936202;29;20027;-72
2021/12/08 03:41:05;;;;;;;41.93;17.27;;;;;;;;;;4934328;29;20031;-73
2021/12/08 03:43:32;;;;;;;39.80;16.60;;;;;;;;;;4935691;29;20056;-73
2021/12/08 03:45:58;;;;;;;37.00;14.83;;;;;;;;;;4933708;29;20130;-73
2021/12/08 03:48:43;;;;;;;37.83;15.73;;;;;;;;;;4933958;29;20035;-77
2021/12/08 03:51:09;;;;;;;34.97;14.57;;;;;;;;;;4935385;29;20027;-75
2021/12/08 03:53:34;;;;;;;32.07;14.83;;;;;;;;;;4934821;29;20502;-76
2021/12/08 03:56:00;;;;;;;31.67;14.60;;;;;;;;;;4934523;29;20052;-78
2021/12/08 03:58:25;;;;;;;33.87;14.63;;;;;;;;;;4933478;29;20035;-78
2021/12/08 04:00:53;;;;;;;31.27;13.70;;;;;;;;;;4932889;29;20444;-76
2021/12/08 04:03:19;;;;;;;33.10;13.80;;;;;;;;;;4934588;29;20064;-77
2021/12/08 04:08:17;;;;;;;32.73;15.10;;;;;;;;;;4934764;29;20107;-76
2021/12/08 04:10:45;;;;;;;38.07;14.73;;;;;;;;;;4933038;29;20337;-76
2021/12/08 04:13:11;;;;;;;35.43;15.07;;;;;;;;;;4934734;29;20027;-77
2021/12/08 04:15:37;;;;;;;32.17;13.00;;;;;;;;;;4935023;29;20540;-77
2021/12/08 04:18:03;;;;;;;29.50;13.50;;;;;;;;;;4933649;29;20540;-78
2021/12/08 04:20:38;;;;;;;25.97;12.70;;;;;;;;;;4934546;29;20288;-78
2021/12/08 04:23:07;;;;;;;32.50;12.97;;;;;;;;;;4933231;29;20035;-77
2021/12/08 04:25:39;;;;;;;30.03;12.67;;;;;;;;;;4933156;29;20491;-78
2021/12/08 04:28:15;;;;;;;;;;;;;;;;;;4934949;29;20066;-79
2021/12/08 04:30:59;;;;;;;30.40;12.47;;;;;;;;;;4933198;29;19974;-77
2021/12/08 04:33:25;;;;;;;30.73;12.37;;;;;;;;;;4932454;29;20071;-76
2021/12/08 04:35:53;;;;;;;26.40;11.53;;;;;;;;;;4933808;29;20083;-77
2021/12/08 04:38:25;;;;;;;25.63;10.77;;;;;;;;;;4932496;29;20042;-75
2021/12/08 04:41:04;;;;;;;27.77;10.67;;;;;;;;;;4932255;29;20465;-78
2021/12/08 04:43:52;;;;;;;26.67;11.50;;;;;;;;;;4933235;29;20046;-77
2021/12/08 04:46:44;;;;;;;24.30;11.27;;;;;;;;;;4934002;29;20306;-76
2021/12/08 05:08:12;;;;;;;22.80;9.97;;;;;;;;;;4933835;28;20035;-76
2021/12/08 05:10:37;;;;;;;28.37;11.23;;;;;;;;;;4931908;29;20027;-77
2021/12/08 05:13:06;;;;;;;28.63;12.00;;;;;;;;;;4931985;29;20499;-75
2021/12/08 05:15:40;;;;;;;29.43;11.00;;;;;;;;;;4933525;29;20540;-78
2021/12/08 05:18:15;;;;;;;24.07;9.67;;;;;;;;;;4933121;29;20102;-78
2021/12/08 05:21:03;;;;;;;25.03;10.50;;;;;;;;;;4933599;29;20707;-78
2021/12/08 05:23:44;;;;;;;21.83;10.60;;;;;;;;;;4932038;29;20023;-77
2021/12/08 05:26:34;;;;;;;26.13;10.77;;;;;;;;;;4932864;29;20043;-75
2021/12/08 05:29:08;;;;;;;29.17;11.27;;;;;;;;;;4935421;29;20098;-76
2021/12/08 05:31:35;;;;;;;22.50;10.17;;;;;;;;;;4933489;29;20034;-77
2021/12/08 05:34:00;;;;;;;27.00;11.87;;;;;;;;;;4932723;29;20024;-78
2021/12/08 05:36:26;;;;;;;25.57;11.93;;;;;;;;;;4933447;29;20064;-78
2021/12/08 05:38:55;;;;;;;22.23;10.43;;;;;;;;;;4933964;29;20032;-76
2021/12/08 05:41:29;;;;;;;22.63;10.00;;;;;;;;;;4933380;29;20095;-78
2021/12/08 05:43:55;;;;;;;25.60;11.20;;;;;;;;;;4933502;29;20389;-75
2021/12/08 05:46:24;;;;;;;19.67;9.23;;;;;;;;;;4933603;29;20064;-76
2021/12/08 05:48:50;;;;;;;23.70;10.17;;;;;;;;;;4933058;29;20060;-78
2021/12/08 05:51:26;;;;;;;20.07;10.13;;;;;;;;;;4931711;29;20027;-80
2021/12/08 05:53:55;;;;;;;23.47;10.67;;;;;;;;;;4932943;29;20039;-77
2021/12/08 05:56:21;;;;;;;26.17;10.50;;;;;;;;;;4932734;29;20023;-78
2021/12/08 05:58:49;;;;;;;22.67;11.97;;;;;;;;;;4932925;29;20070;-77
2021/12/08 06:01:37;;;;;;;26.70;11.13;;;;;;;;;;4931321;29;20019;-78
2021/12/08 06:04:04;;;;;;;28.00;11.03;;;;;;;;;;4931342;29;20122;-79
2021/12/08 06:06:30;;;;;;;26.67;10.50;;;;;;;;;;4931562;29;20024;-77
2021/12/08 06:08:57;;;;;;;25.83;10.33;;;;;;;;;;4932663;29;20043;-77
2021/12/08 06:11:25;;;;;;;29.67;11.67;;;;;;;;;;4932450;29;20020;-77
2021/12/08 06:13:52;;;;;;;19.40;9.00;;;;;;;;;;4931269;29;20032;-78
2021/12/08 06:16:21;;;;;;;23.10;11.13;;;;;;;;;;4931371;29;20023;-77
2021/12/08 06:18:51;;;;;;;31.13;11.83;;;;;;;;;;4931427;29;20059;-76
2021/12/08 06:21:19;;;;;;;24.80;10.17;;;;;;;;;;4930932;29;20036;-76
2021/12/08 06:23:45;;;;;;;25.60;11.20;;;;;;;;;;4932362;29;20036;-79
2021/12/08 06:26:15;;;;;;;25.57;11.27;;;;;;;;;;4932465;29;20107;-78
2021/12/08 06:28:40;;;;;;;29.43;11.63;;;;;;;;;;4932852;29;20087;-77
2021/12/08 06:31:07;;;;;;;27.83;11.00;;;;;;;;;;4930881;29;20118;-78
2021/12/08 06:33:33;;;;;;;31.47;12.53;;;;;;;;;;4929336;29;20024;-74
2021/12/08 06:36:04;;;;;;;31.57;12.73;;;;;;;;;;4932897;29;20075;-78
2021/12/08 06:38:30;;;;;;;29.97;12.93;;;;;;;;;;4937744;29;20496;-78
2021/12/08 06:41:08;;;;;;;42.60;15.40;;;;;;;;;;4925702;29;20064;-78
2021/12/08 06:43:38;;;;;;;37.27;14.30;;;;;;;;;;4928519;29;20028;-76
2021/12/08 06:46:04;;;;;;;37.13;13.90;;;;;;;;;;4931010;29;20514;-77
2021/12/08 06:48:34;;;;;;;28.97;13.43;;;;;;;;;;4929215;29;20047;-78
2021/12/08 06:51:25;;;;;;;34.93;14.13;;;;;;;;;;4931472;29;20027;-79
2021/12/08 06:53:55;;;;;;;37.57;14.73;;;;;;;;;;4931420;29;20058;-76
2021/12/08 06:56:29;;;;;;;34.87;14.90;;;;;;;;;;4937217;29;20107;-78
2021/12/08 06:58:58;;;;;;;39.00;15.00;;;;;;;;;;4939473;29;20036;-78
2021/12/08 07:01:55;;;;;;;37.00;15.73;;;;;;;;;;4936544;29;20024;-77
2021/12/08 07:05:07;;;;;;;38.97;15.40;;;;;;;;;;4934084;29;20032;-78
2021/12/08 07:07:33;;;;;;;35.87;14.10;;;;;;;;;;4934814;29;20024;-77
2021/12/08 07:10:24;;;;;;;37.37;15.33;;;;;;;;;;4936810;29;20098;-78
2021/12/08 07:13:00;;;;;;;43.40;17.30;;;;;;;;;;4932223;29;20127;-76
2021/12/08 07:15:34;;;;;;;39.90;16.40;;;;;;;;;;4926430;29;20111;-78
2021/12/08 07:18:06;;;;;;;36.70;16.07;;;;;;;;;;4928193;29;20055;-77
2021/12/08 07:20:46;;;;;;;48.97;17.58;;;;;;;;;;4927180;29;20098;-76
2021/12/08 07:23:27;;;;;;;40.17;17.33;;;;;;;;;;4929853;29;20027;-75
2021/12/08 07:25:55;;;;;;;42.63;16.03;;;;;;;;;;4945627;29;20031;-75
2021/12/08 07:28:26;;;;;;;40.50;16.43;;;;;;;;;;4927001;29;20035;-75
2021/12/08 07:31:00;;;;;;;44.60;17.67;;;;;;;;;;4927650;29;20206;-78
2021/12/08 07:33:27;;;;;;;39.17;16.63;;;;;;;;;;4936496;29;20020;-77
2021/12/08 07:35:56;;;;;;;46.53;18.00;;;;;;;;;;4927141;29;20043;-76
2021/12/08 07:38:25;;;;;;;37.90;17.50;;;;;;;;;;4931532;29;20086;-76
2021/12/08 07:41:11;;;;;;;44.60;17.63;;;;;;;;;;4928432;29;20030;-77
2021/12/08 07:43:47;;;;;;;37.00;16.07;;;;;;;;;;4926418;29;20036;-77
2021/12/08 07:46:17;;;;;;;39.77;16.73;;;;;;;;;;4925841;29;20048;-76
2021/12/08 07:48:48;;;;;;;44.10;18.53;;;;;;;;;;4927089;29;20160;-75
2021/12/08 07:51:22;;;;;;;42.93;18.83;;;;;;;;;;4929221;29;20057;-80
2021/12/08 07:53:57;;;;;;;43.42;16.88;;;;;;;;;;4929977;29;20036;-79
2021/12/08 07:56:24;;;;;;;41.03;16.30;;;;;;;;;;4932132;29;20119;-77
2021/12/08 07:58:56;;;;;;;42.60;17.50;;;;;;;;;;4944356;29;20500;-76
2021/12/08 08:01:25;;;;;;;44.58;18.48;;;;;;;;;;4929514;29;20032;-75
2021/12/08 08:03:52;;;;;;;42.63;18.87;;;;;;;;;;4931385;29;20035;-71
2021/12/08 08:06:23;;;;;;;43.97;16.40;;;;;;;;;;4929185;28;20019;-76
2021/12/08 08:08:51;;;;;;;35.07;15.87;;;;;;;;;;4944557;29;20035;-78
2021/12/08 08:11:24;;;;;;;43.40;16.87;;;;;;;;;;4929741;29;20111;-75
2021/12/08 08:13:50;;;;;;;38.73;17.47;;;;;;;;;;4923003;29;21068;-77
2021/12/08 08:16:19;;;;;;;39.73;15.97;;;;;;;;;;4925681;29;20027;-75
2021/12/08 08:18:55;;;;;;;36.93;16.00;;;;;;;;;;4925611;29;20040;-75
2021/12/08 08:21:23;;;;;;;40.77;15.53;;;;;;;;;;4928099;29;20043;-73
2021/12/08 08:23:50;;;;;;;35.97;15.27;;;;;;;;;;4922291;29;20050;-78
2021/12/08 08:26:16;;;;;;;39.00;16.87;;;;;;;;;;4915824;29;20566;-74
2021/12/08 08:28:48;;;;;;;35.73;15.50;;;;;;;;;;4926004;29;20264;-73
2021/12/08 08:31:25;;;;;;;36.25;17.10;;;;;;;;;;4924551;29;20040;-77
2021/12/08 08:33:51;;;;;;;42.23;16.33;;;;;;;;;;4922836;29;20501;-77
2021/12/08 08:36:23;;;;;;;44.03;16.70;;;;;;;;;;4922139;29;20056;-78
2021/12/08 08:38:51;;;;;;;45.33;18.52;;;;;;;;;;4923225;29;20028;-75
2021/12/08 08:41:26;;;;;;;34.40;15.03;;;;;;;;;;4925075;29;20036;-75
2021/12/08 08:43:54;;;;;;;43.87;16.30;;;;;;;;;;4922940;29;20039;-74
2021/12/08 08:46:27;;;;;;;39.57;17.10;;;;;;;;;;4924977;28;20055;-76
2021/12/08 08:49:19;;;;;;;36.87;16.97;;;;;;;;;;4923555;29;20086;-75
2021/12/08 08:52:11;;;;;;;40.75;18.20;;;;;;;;;;4927976;29;20762;-75
2021/12/08 08:54:42;;;;;;;38.80;17.70;;;;;;;;;;4922584;29;20035;-76
2021/12/08 08:57:13;;;;;;;46.63;18.35;;;;;;;;;;4924965;29;20028;-78
2021/12/08 08:59:45;;;;;;;45.27;16.83;;;;;;;;;;4923088;29;20118;-78
2021/12/08 09:02:12;;;;;;;;;;;;;;;;;;4922401;29;20035;-75
2021/12/08 09:04:46;;;;;;;36.07;14.70;;;;;;;;;;4920630;29;19942;-78
2021/12/08 09:07:21;;;;;;;42.13;16.23;;;;;;;;;;4922968;29;20047;-78
2021/12/08 09:09:49;;;;;;;42.50;16.27;;;;;;;;;;4920864;29;20032;-78
2021/12/08 09:12:31;;;;;;;41.33;17.50;;;;;;;;;;4922456;29;20032;-79
2021/12/08 09:15:13;;;;;;;55.30;19.08;;;;;;;;;;4923141;29;20035;-74
2021/12/08 09:17:50;;;;;;;41.35;17.67;;;;;;;;;;4923248;28;20676;-76
2021/12/08 09:20:22;;;;;;;39.33;15.47;;;;;;;;;;4923227;29;20110;-77
2021/12/08 09:22:56;;;;;;;44.92;17.08;;;;;;;;;;4931887;29;20050;-77
2021/12/08 09:25:30;;;;;;;42.17;15.87;;;;;;;;;;4923948;29;20040;-77
2021/12/08 09:28:00;;;;;;;43.03;17.10;;;;;;;;;;4927398;29;20098;-78
2021/12/08 09:30:35;;;;;;;41.33;16.90;;;;;;;;;;4924515;29;20114;-78
2021/12/08 09:33:17;;;;;;;44.23;17.07;;;;;;;;;;4923783;29;20039;-77
2021/12/08 09:36:00;;;;;;;;;;;;;;;;;;4927282;29;20130;-78
2021/12/08 09:38:31;;;;;;;44.50;15.47;;;;;;;;;;4924329;29;19962;-76
2021/12/08 09:41:01;;;;;;;41.63;16.63;;;;;;;;;;4925911;29;20130;-77
2021/12/08 09:43:33;;;;;;;40.13;15.50;;;;;;;;;;4923998;29;20027;-76
2021/12/08 09:46:11;;;;;;;44.23;19.43;;;;;;;;;;4926262;29;20123;-79
2021/12/08 09:48:42;;;;;;;39.67;17.60;;;;;;;;;;4927426;29;20031;-75
2021/12/08 09:51:08;;;;;;;41.88;16.65;;;;;;;;;;4926725;29;20134;-78
2021/12/08 09:53:38;;;;;;;46.03;16.77;;;;;;;;;;4923573;29;20044;-76
2021/12/08 09:56:04;;;;;;;45.77;19.03;;;;;;;;;;4926378;29;20078;-78
2021/12/08 09:58:30;;;;;;;41.23;17.07;;;;;;;;;;4926286;29;20033;-74
2021/12/08 10:01:00;;;;;;;44.97;18.23;;;;;;;;;;4925297;29;20042;-75
2021/12/08 10:03:25;;;;;;;39.40;16.07;;;;;;;;;;4917297;29;20027;-77
2021/12/08 10:05:52;;;;;;;41.43;16.50;;;;;;;;;;4923249;29;20046;-75
2021/12/08 10:08:18;;;;;;;36.57;16.43;;;;;;;;;;4925090;29;20055;-79
2021/12/08 10:10:46;;;;;;;38.53;16.17;;;;;;;;;;4924059;29;20654;-77
2021/12/08 10:13:13;;;;;;;48.23;19.13;;;;;;;;;;4925063;29;20035;-75
2021/12/08 10:15:40;;;;;;;46.33;17.93;;;;;;;;;;4926817;29;20466;-77
2021/12/08 10:18:06;;;;;;;45.53;17.77;;;;;;;;;;4926807;29;20124;-78
2021/12/08 10:20:35;;;;;;;42.60;16.90;;;;;;;;;;4927848;29;20038;-78
2021/12/08 10:23:30;;;;;;;43.53;17.60;;;;;;;;;;4925900;29;20086;-77
2021/12/08 10:26:06;;;;;;;46.00;17.00;;;;;;;;;;4924349;29;20070;-79
2021/12/08 10:28:40;;;;;;;40.73;18.43;;;;;;;;;;4941068;29;20055;-78
2021/12/08 10:31:14;;;;;;;43.70;16.80;;;;;;;;;;4929069;29;20138;-78
2021/12/08 10:33:55;;;;;;;44.30;16.60;;;;;;;;;;4927124;29;20147;-79
2021/12/08 10:39:15;;;;;;;45.53;16.27;;;;;;;;;;4929116;29;20043;-80
2021/12/08 10:41:54;;;;;;;44.92;17.15;;;;;;;;;;4930770;29;20036;-76
2021/12/08 10:44:28;;;;;;;44.63;16.40;;;;;;;;;;4925744;29;20174;-76
2021/12/08 10:46:57;;;;;;;41.00;16.10;;;;;;;;;;4927641;29;20031;-76
2021/12/08 10:54:59;;;;;;;50.70;18.03;;;;;;;;;;4929946;29;20499;-78
2021/12/08 10:57:31;;;;;;;45.83;16.60;;;;;;;;;;4930128;29;20385;-76
2021/12/08 10:59:59;;;;;;;;;;;;;;;;;;4929733;29;20535;-79
2021/12/08 11:02:46;;;;;;;45.23;17.87;;;;;;;;;;4928192;29;20573;-77
2021/12/08 11:05:24;;;;;;;54.90;15.50;;;;;;;;;;4928391;29;20035;-78
2021/12/08 11:08:14;;;;;;;36.00;15.13;;;;;;;;;;4928233;29;20034;-78
2021/12/08 11:10:58;;;;;;;45.73;18.17;;;;;;;;;;4925479;29;20098;-77
2021/12/08 11:13:30;;;;;;;52.97;18.50;;;;;;;;;;4932204;29;20127;-77
2021/12/08 11:16:04;;;;;;;48.33;17.08;;;;;;;;;;4937229;29;20020;-74
2021/12/08 11:18:31;;;;;;;41.30;16.17;;;;;;;;;;4934800;29;20083;-77
2021/12/08 11:21:03;;;;;;;42.93;16.27;;;;;;;;;;4933415;29;20034;-79
2021/12/08 11:23:42;;;;;;;41.37;17.00;;;;;;;;;;4928871;29;20835;-80
2021/12/08 11:26:14;;;;;;;46.07;17.20;;;;;;;;;;4926664;29;20031;-78
2021/12/08 11:28:42;;;;;;;41.38;16.58;;;;;;;;;;4930044;29;20638;-77
2021/12/08 11:31:12;;;;;;;37.97;16.10;;;;;;;;;;4930292;29;20091;-76
2021/12/08 11:33:48;;;;;;;41.70;16.90;;;;;;;;;;4926317;29;20151;-79
2021/12/08 11:36:25;;;;;;;40.23;14.87;;;;;;;;;;4929499;29;20081;-75
2021/12/08 11:38:51;;;;;;;48.73;15.87;;;;;;;;;;4944253;29;20887;-75
2021/12/08 11:41:29;;;;;;;38.90;14.87;;;;;;;;;;4928242;29;20761;-75
2021/12/08 11:43:57;;;;;;;51.33;18.50;;;;;;;;;;4926429;29;20032;-78
2021/12/08 11:46:23;;;;;;;42.23;16.27;;;;;;;;;;4915913;29;20032;-75
2021/12/08 11:49:05;;;;;;;58.17;18.13;;;;;;;;;;4927006;29;20448;-72
2021/12/08 11:51:49;;;;;;;50.85;17.67;;;;;;;;;;4926349;29;20031;-73
2021/12/08 11:54:31;;;;;;;46.67;17.20;;;;;;;;;;4926588;29;20083;-73
2021/12/08 11:57:10;;;;;;;50.15;16.23;;;;;;;;;;4928651;29;20074;-74
2021/12/08 11:59:47;;;;;;;50.17;17.13;;;;;;;;;;4927039;29;20031;-73
2021/12/08 12:02:14;;;;;;;43.83;16.73;;;;;;;;;;4926943;29;20032;-71
2021/12/08 12:04:42;;;;;;;45.13;16.30;;;;;;;;;;4926539;29;20041;-73
2021/12/08 12:07:13;;;;;;;46.67;16.00;;;;;;;;;;4926478;29;20031;-72
2021/12/08 12:09:40;;;;;;;42.00;14.57;;;;;;;;;;4927522;29;20083;-72
2021/12/08 12:12:06;;;;;;;39.73;14.60;;;;;;;;;;4922118;29;20751;-74
2021/12/08 12:14:32;;;;;;;42.10;15.87;;;;;;;;;;4928861;29;20050;-74
2021/12/08 12:16:57;;;;;;;46.10;17.43;;;;;;;;;;4918474;29;20040;-73
2021/12/08 12:19:29;;;;;;;44.53;18.70;;;;;;;;;;4926120;29;20635;-74
2021/12/08 12:22:06;;;;;;;44.53;17.67;;;;;;;;;;4921831;29;20090;-74
2021/12/08 12:24:48;;;;;;;38.70;16.57;;;;;;;;;;4921672;29;20285;-73
2021/12/08 12:27:32;;;;;;;38.08;16.35;;;;;;;;;;4926416;29;20167;-72
2021/12/08 12:30:04;;;;;;;44.77;15.97;;;;;;;;;;4927539;29;20035;-72
2021/12/08 12:32:54;;;;;;;48.08;17.77;;;;;;;;;;4922471;29;20035;-73
2021/12/08 12:35:23;;;;;;;37.63;14.73;;;;;;;;;;4922420;29;20055;-73
2021/12/08 12:37:58;;;;;;;38.07;15.23;;;;;;;;;;4941052;29;20618;-72
2021/12/08 12:40:32;;;;;;;41.20;16.57;;;;;;;;;;4922748;29;20020;-73
2021/12/08 12:42:59;;;;;;;43.00;16.07;;;;;;;;;;4924193;29;20035;-74
2021/12/08 12:45:35;;;;;;;41.97;16.77;;;;;;;;;;4925682;29;20047;-73
2021/12/08 12:48:14;;;;;;;42.47;17.13;;;;;;;;;;4926332;29;20118;-73
2021/12/08 12:51:00;;;;;;;47.93;16.07;;;;;;;;;;4924433;29;20047;-73
2021/12/08 12:53:46;;;;;;;43.37;15.60;;;;;;;;;;4922853;29;20062;-72
2021/12/08 12:56:36;;;;;;;53.97;16.90;;;;;;;;;;4926530;29;20046;-73
2021/12/08 12:59:16;;;;;;;34.80;15.70;;;;;;;;;;4927244;29;20087;-73
2021/12/08 13:01:47;;;;;;;50.97;15.63;;;;;;;;;;4926791;29;20496;-71
2021/12/08 13:04:25;;;;;;;42.57;16.23;;;;;;;;;;4922645;29;20041;-74
2021/12/08 13:07:02;;;;;;;39.23;14.90;;;;;;;;;;4923484;29;20024;-76
2021/12/08 13:09:37;;;;;;;40.63;15.87;;;;;;;;;;4921807;29;20031;-74
2021/12/08 13:12:16;;;;;;;44.00;18.87;;;;;;;;;;4923543;29;20540;-74
2021/12/08 13:14:44;;;;;;;36.67;15.43;;;;;;;;;;4921571;29;20403;-74
2021/12/08 13:17:22;;;;;;;40.27;18.17;;;;;;;;;;4924169;29;20035;-74
2021/12/08 13:19:51;;;;;;;45.63;16.33;;;;;;;;;;4923303;29;20401;-72
2021/12/08 13:22:55;;;;;;;38.90;17.00;;;;;;;;;;4921852;29;20423;-73
2021/12/08 13:25:26;;;;;;;42.80;16.27;;;;;;;;;;4923153;29;20032;-74
2021/12/08 13:27:54;;;;;;;45.67;16.33;;;;;;;;;;4925761;29;20111;-76
2021/12/08 13:30:19;;;;;;;46.23;17.70;;;;;;;;;;4924712;29;20079;-73
2021/12/08 13:32:46;;;;;;;44.13;16.37;;;;;;;;;;4922817;29;20114;-72
2021/12/08 13:35:30;;;;;;;45.13;16.43;;;;;;;;;;4937889;29;20140;-74
2021/12/08 13:37:57;;;;;;;41.30;16.10;;;;;;;;;;4922174;29;20028;-74
2021/12/08 13:40:43;;;;;;;38.57;15.30;;;;;;;;;;4938918;29;20424;-74
2021/12/08 13:43:10;;;;;;;47.53;17.70;;;;;;;;;;4923767;29;20028;-71
2021/12/08 13:45:43;;;;;;;51.53;17.70;;;;;;;;;;4906598;29;20393;-72
2021/12/08 13:48:10;;;;;;;48.00;17.20;;;;;;;;;;4908302;29;20050;-72
2021/12/08 13:50:37;;;;;;;54.43;17.97;;;;;;;;;;4923286;29;20039;-73
2021/12/08 13:53:13;;;;;;;51.37;18.40;;;;;;;;;;4921547;29;20499;-75
2021/12/08 13:55:48;;;;;;;45.50;17.03;;;;;;;;;;4891657;29;20489;-73
2021/12/08 13:58:17;;;;;;;45.67;17.17;;;;;;;;;;4923078;29;20146;-73
2021/12/08 14:00:52;;;;;;;47.80;16.27;;;;;;;;;;4922530;29;20062;-73
2021/12/08 14:03:24;;;;;;;47.30;17.70;;;;;;;;;;4936656;29;20472;-73
2021/12/08 14:05:55;;;;;;;;;;;;;;;;;;4922563;29;20027;-73
2021/12/08 14:08:34;;;;;;;45.17;18.17;;;;;;;;;;4937914;29;19925;-73
2021/12/08 14:11:10;;;;;;;50.73;19.17;;;;;;;;;;4920324;29;20595;-75
2021/12/08 14:13:37;;;;;;;52.10;17.47;;;;;;;;;;4920156;29;20114;-76
2021/12/08 14:16:09;;;;;;;50.07;18.43;;;;;;;;;;4923464;29;20507;-72
2021/12/08 14:18:51;;;;;;;39.95;18.00;;;;;;;;;;4924046;29;20063;-75
2021/12/08 14:21:24;;;;;;;49.80;18.23;;;;;;;;;;4920108;29;20492;-73
2021/12/08 14:23:58;;;;;;;44.53;17.63;;;;;;;;;;4922764;29;20131;-73
2021/12/08 14:26:29;;;;;;;52.33;18.23;;;;;;;;;;4920280;29;20039;-73
2021/12/08 14:28:57;;;;;;;44.53;18.60;;;;;;;;;;4923997;29;20038;-73
2021/12/08 14:31:39;;;;;;;53.17;18.40;;;;;;;;;;4922803;29;20269;-73
2021/12/08 14:34:13;;;;;;;43.70;18.25;;;;;;;;;;4936515;29;20043;-72
2021/12/08 14:36:41;;;;;;;48.43;20.00;;;;;;;;;;4921204;29;20059;-74
2021/12/08 14:39:19;;;;;;;50.80;19.63;;;;;;;;;;4921555;29;20507;-71
2021/12/08 14:41:52;;;;;;;49.07;19.40;;;;;;;;;;4920988;29;20039;-73
2021/12/08 14:44:20;;;;;;;46.83;17.30;;;;;;;;;;4904669;28;20060;-72
2021/12/08 14:46:49;;;;;;;53.87;19.27;;;;;;;;;;4938876;28;20027;-73
2021/12/08 14:49:19;;;;;;;51.40;19.50;;;;;;;;;;4923930;29;20650;-71
2021/12/08 14:51:47;;;;;;;49.93;17.73;;;;;;;;;;4938041;29;20038;-74
2021/12/08 14:54:26;;;;;;;47.60;18.53;;;;;;;;;;4920253;29;20043;-71
2021/12/08 14:57:13;;;;;;;48.37;18.10;;;;;;;;;;4924036;29;20272;-75
2021/12/08 15:00:12;;;;;;;54.50;18.70;;;;;;;;;;4925428;29;20036;-72
2021/12/08 15:02:40;;;;;;;49.67;20.17;;;;;;;;;;4920598;29;20055;-74
2021/12/08 15:05:15;;;;;;;53.97;18.00;;;;;;;;;;4925595;29;20031;-73
2021/12/08 15:07:42;;;;;;;63.80;19.80;;;;;;;;;;4925590;29;20078;-73
2021/12/08 15:10:15;;;;;;;51.23;20.57;;;;;;;;;;4923980;29;20040;-72
2021/12/08 15:12:43;;;;;;;51.83;17.60;;;;;;;;;;4918689;29;20119;-72
2021/12/08 15:15:21;;;;;;;58.73;20.53;;;;;;;;;;4927776;29;20036;-73
2021/12/08 15:17:57;;;;;;;59.07;19.93;;;;;;;;;;4932761;29;20119;-72
2021/12/08 15:20:33;;;;;;;55.27;19.43;;;;;;;;;;4931993;29;20059;-72
2021/12/08 15:22:59;;;;;;;51.60;18.37;;;;;;;;;;4931842;29;20023;-74
2021/12/08 15:25:25;;;;;;;46.10;18.00;;;;;;;;;;4931673;29;20400;-73
2021/12/08 15:27:54;;;;;;;52.47;20.50;;;;;;;;;;4929146;29;20397;-74
2021/12/08 15:30:48;;;;;;;57.63;22.27;;;;;;;;;;4931781;29;20050;-72
2021/12/08 15:33:16;;;;;;;48.13;19.57;;;;;;;;;;4931788;29;20044;-73
2021/12/08 15:35:44;;;;;;;67.27;22.23;;;;;;;;;;4931602;29;20051;-71